createdAt,value
2018-09-09T00:00:33.819Z,63.79
2018-09-09T00:02:26.738Z,63.89
2018-09-09T00:03:26.753Z,63.89
2018-09-09T00:05:19.666Z,63.99
2018-09-09T00:06:19.680Z,63.89
2018-09-09T00:08:12.597Z,63.70
2018-09-09T00:09:12.609Z,63.89
2018-09-09T00:11:05.519Z,63.51
2018-09-09T00:12:05.546Z,63.99
2018-09-09T00:13:58.460Z,63.89
2018-09-09T00:14:58.472Z,64.18
2018-09-09T00:16:51.386Z,64.28
2018-09-09T00:17:51.404Z,64.28
2018-09-09T00:19:44.329Z,64.18
2018-09-09T00:20:44.334Z,64.28
2018-09-09T00:22:37.248Z,64.18
2018-09-09T00:23:37.274Z,64.09
2018-09-09T00:25:30.190Z,64.09
2018-09-09T00:26:30.203Z,64.09
2018-09-09T00:28:23.120Z,64.09
2018-09-09T00:29:23.134Z,64.28
2018-09-09T00:31:16.041Z,64.28
2018-09-09T00:32:16.061Z,64.47
2018-09-09T00:34:08.995Z,64.28
2018-09-09T00:35:08.993Z,64.28
2018-09-09T00:37:01.895Z,64.47
2018-09-09T00:38:01.924Z,64.37
2018-09-09T00:39:54.856Z,63.89
2018-09-09T00:40:54.857Z,64.47
2018-09-09T00:42:47.765Z,64.56
2018-09-09T00:43:47.784Z,64.09
2018-09-09T00:45:40.701Z,64.18
2018-09-09T00:46:40.717Z,64.09
2018-09-09T00:48:33.649Z,63.99
2018-09-09T00:49:33.646Z,64.18
2018-09-09T00:51:26.560Z,64.85
2018-09-09T00:52:26.577Z,65.20
2018-09-09T00:54:19.492Z,64.82
2018-09-09T00:55:19.506Z,65.11
2018-09-09T00:57:12.415Z,64.92
2018-09-09T00:58:12.440Z,65.20
2018-09-09T01:00:05.355Z,64.82
2018-09-09T01:01:05.360Z,64.82
2018-09-09T01:02:58.277Z,65.20
2018-09-09T01:03:58.308Z,65.68
2018-09-09T01:05:51.376Z,65.97
2018-09-09T01:06:51.387Z,66.55
2018-09-09T01:08:44.296Z,66.35
2018-09-09T01:09:44.317Z,66.83
2018-09-09T01:11:37.234Z,66.64
2018-09-09T01:12:37.247Z,66.71
2018-09-09T01:14:30.166Z,66.80
2018-09-09T01:15:30.181Z,66.99
2018-09-09T01:17:23.090Z,66.22
2018-09-09T01:18:23.106Z,66.71
2018-09-09T01:20:16.027Z,67.12
2018-09-09T01:21:16.037Z,66.99
2018-09-09T01:23:08.946Z,68.05
2018-09-09T01:24:08.971Z,67.85
2018-09-09T01:26:01.885Z,67.57
2018-09-09T01:27:01.896Z,67.57
2018-09-09T01:28:54.803Z,67.57
2018-09-09T01:29:54.821Z,67.57
2018-09-09T01:31:47.740Z,67.85
2018-09-09T01:32:47.754Z,67.85
2018-09-09T01:34:40.662Z,67.57
2018-09-09T01:35:40.684Z,67.66
2018-09-09T01:37:33.601Z,67.66
2018-09-09T01:38:33.614Z,67.95
2018-09-09T01:40:26.530Z,68.05
2018-09-09T01:41:26.541Z,67.57
2018-09-09T01:43:19.453Z,67.28
2018-09-09T01:44:19.472Z,67.66
2018-09-09T01:46:12.399Z,68.33
2018-09-09T01:47:12.403Z,68.24
2018-09-09T01:49:05.337Z,68.43
2018-09-09T01:50:05.330Z,68.14
2018-09-09T01:51:58.242Z,68.43
2018-09-09T01:52:58.261Z,68.33
2018-09-09T01:54:51.169Z,68.24
2018-09-09T01:55:51.187Z,68.43
2018-09-09T01:57:44.104Z,68.52
2018-09-09T01:58:44.116Z,68.43
2018-09-09T02:00:37.027Z,68.18
2018-09-09T02:01:37.048Z,68.33
2018-09-09T02:03:29.961Z,68.14
2018-09-09T02:04:29.973Z,68.62
2018-09-09T02:06:22.891Z,68.43
2018-09-09T02:07:22.916Z,68.14
2018-09-09T02:09:15.814Z,68.14
2018-09-09T02:10:15.826Z,68.43
2018-09-09T02:12:08.748Z,68.33
2018-09-09T02:13:08.781Z,68.24
2018-09-09T02:15:01.672Z,68.24
2018-09-09T02:16:01.695Z,68.81
2018-09-09T02:17:54.608Z,69.01
2018-09-09T02:18:54.622Z,69.01
2018-09-09T02:20:47.538Z,69.01
2018-09-09T02:21:47.558Z,69.20
2018-09-09T02:23:40.486Z,69.10
2018-09-09T02:24:40.496Z,69.01
2018-09-09T02:26:33.419Z,69.87
2018-09-09T02:27:33.425Z,70.15
2018-09-09T02:29:26.335Z,69.87
2018-09-09T02:30:26.352Z,69.96
2018-09-09T02:32:19.271Z,70.44
2018-09-09T02:33:19.280Z,69.83
2018-09-09T02:35:12.186Z,70.12
2018-09-09T02:36:12.206Z,70.60
2018-09-09T02:38:05.125Z,70.79
2018-09-09T02:39:05.136Z,70.60
2018-09-09T02:40:58.044Z,70.79
2018-09-09T02:41:58.067Z,70.89
2018-09-09T02:43:51.079Z,70.83
2018-09-09T02:44:50.992Z,71.02
2018-09-09T02:46:43.901Z,71.08
2018-09-09T02:47:43.920Z,71.31
2018-09-09T02:49:36.838Z,70.83
2018-09-09T02:50:36.849Z,71.40
2018-09-09T02:52:29.774Z,71.40
2018-09-09T02:53:29.782Z,71.46
2018-09-09T02:55:22.689Z,71.27
2018-09-09T02:56:22.710Z,71.46
2018-09-09T02:58:15.625Z,71.40
2018-09-09T02:59:15.638Z,71.31
2018-09-09T03:01:08.549Z,72.23
2018-09-09T03:02:08.567Z,72.13
2018-09-09T03:04:01.482Z,72.27
2018-09-09T03:05:01.517Z,72.32
2018-09-09T03:06:54.401Z,72.42
2018-09-09T03:07:54.421Z,72.13
2018-09-09T03:09:47.336Z,72.71
2018-09-09T03:10:47.350Z,72.61
2018-09-09T03:12:40.266Z,72.52
2018-09-09T03:13:40.273Z,72.61
2018-09-09T03:15:33.190Z,73.38
2018-09-09T03:16:33.207Z,72.61
2018-09-09T03:18:26.146Z,72.99
2018-09-09T03:19:26.146Z,73.09
2018-09-09T03:21:19.062Z,73.57
2018-09-09T03:22:19.066Z,73.76
2018-09-09T03:24:11.986Z,74.24
2018-09-09T03:25:11.997Z,74.20
2018-09-09T03:27:04.909Z,74.24
2018-09-09T03:28:04.929Z,74.05
2018-09-09T03:29:57.842Z,74.05
2018-09-09T03:30:57.853Z,74.24
2018-09-09T03:32:50.761Z,74.24
2018-09-09T03:33:50.781Z,74.62
2018-09-09T03:35:43.705Z,74.62
2018-09-09T03:36:43.712Z,74.33
2018-09-09T03:38:36.626Z,74.30
2018-09-09T03:39:36.644Z,75.07
2018-09-09T03:41:29.544Z,74.87
2018-09-09T03:42:29.557Z,75.16
2018-09-09T03:44:22.479Z,75.26
2018-09-09T03:45:22.501Z,74.97
2018-09-09T03:47:15.399Z,74.97
2018-09-09T03:48:15.426Z,75.26
2018-09-09T03:50:08.334Z,74.97
2018-09-09T03:51:08.348Z,75.16
2018-09-09T03:53:01.276Z,74.97
2018-09-09T03:54:01.300Z,74.87
2018-09-09T03:55:54.214Z,75.29
2018-09-09T03:56:54.222Z,74.91
2018-09-09T03:58:47.155Z,74.91
2018-09-09T03:59:47.152Z,74.62
2018-09-09T04:01:40.059Z,74.72
2018-09-09T04:02:40.081Z,75.01
2018-09-09T04:04:32.996Z,74.82
2018-09-09T04:05:33.006Z,75.29
2018-09-09T04:07:25.915Z,74.82
2018-09-09T04:08:25.934Z,75.10
2018-09-09T04:10:18.852Z,75.20
2018-09-09T04:11:18.865Z,74.72
2018-09-09T04:13:11.766Z,75.01
2018-09-09T04:14:11.792Z,74.52
2018-09-09T04:16:04.705Z,73.95
2018-09-09T04:17:04.719Z,74.15
2018-09-09T04:18:57.623Z,74.33
2018-09-09T04:19:57.643Z,74.15
2018-09-09T04:21:50.560Z,73.86
2018-09-09T04:22:50.568Z,73.95
2018-09-09T04:24:43.484Z,74.15
2018-09-09T04:25:43.495Z,74.49
2018-09-09T04:27:36.401Z,75.26
2018-09-09T04:28:36.420Z,74.87
2018-09-09T04:30:29.335Z,75.16
2018-09-09T04:31:29.345Z,75.16
2018-09-09T04:33:22.248Z,75.45
2018-09-09T04:34:22.269Z,75.64
2018-09-09T04:36:15.189Z,75.64
2018-09-09T04:37:15.199Z,75.83
2018-09-09T04:39:08.115Z,76.02
2018-09-09T04:40:08.133Z,75.45
2018-09-09T04:42:01.048Z,76.12
2018-09-09T04:43:01.059Z,76.40
2018-09-09T04:44:53.996Z,76.31
2018-09-09T04:45:53.987Z,75.73
2018-09-09T04:47:46.893Z,76.21
2018-09-09T04:48:46.914Z,76.31
2018-09-09T04:50:39.827Z,76.02
2018-09-09T04:51:39.838Z,76.12
2018-09-09T04:53:32.782Z,75.93
2018-09-09T04:54:32.769Z,76.89
2018-09-09T04:56:25.702Z,76.79
2018-09-09T04:57:25.696Z,76.69
2018-09-09T04:59:18.616Z,76.40
2018-09-09T05:00:19.157Z,76.50
2018-09-09T05:02:11.544Z,76.89
2018-09-09T05:03:11.553Z,76.89
2018-09-09T05:05:04.458Z,76.79
2018-09-09T05:06:04.482Z,76.50
2018-09-09T05:07:57.392Z,77.08
2018-09-09T05:08:57.402Z,77.08
2018-09-09T05:10:50.317Z,76.98
2018-09-09T05:11:50.334Z,77.17
2018-09-09T05:13:43.247Z,77.36
2018-09-09T05:14:43.270Z,76.89
2018-09-09T05:16:36.174Z,77.08
2018-09-09T05:17:36.193Z,77.26
2018-09-09T05:19:29.093Z,77.46
2018-09-09T05:20:29.136Z,76.69
2018-09-09T05:22:22.033Z,76.50
2018-09-09T05:23:22.058Z,77.26
2018-09-09T05:25:14.950Z,76.98
2018-09-09T05:26:14.970Z,76.79
2018-09-09T05:28:07.890Z,76.69
2018-09-09T05:29:07.901Z,76.60
2018-09-09T05:31:00.823Z,76.69
2018-09-09T05:32:00.844Z,76.98
2018-09-09T05:33:53.760Z,76.54
2018-09-09T05:34:53.769Z,77.21
2018-09-09T05:36:46.688Z,76.69
2018-09-09T05:37:46.702Z,76.64
2018-09-09T05:39:39.613Z,76.73
2018-09-09T05:40:39.631Z,76.25
2018-09-09T05:42:32.546Z,76.06
2018-09-09T05:43:32.556Z,75.96
2018-09-09T05:45:25.470Z,75.39
2018-09-09T05:46:25.494Z,75.71
2018-09-09T05:48:18.428Z,75.43
2018-09-09T05:49:18.437Z,74.37
2018-09-09T05:51:11.355Z,74.57
2018-09-09T05:52:11.363Z,74.95
2018-09-09T05:54:04.313Z,74.85
2018-09-09T05:55:04.328Z,74.18
2018-09-09T05:56:57.231Z,74.47
2018-09-09T05:57:57.252Z,74.66
2018-09-09T05:59:50.159Z,74.37
2018-09-09T06:00:50.184Z,74.57
2018-09-09T06:02:43.094Z,74.85
2018-09-09T06:03:43.109Z,74.47
2018-09-09T06:05:36.015Z,75.29
2018-09-09T06:06:36.038Z,74.85
2018-09-09T06:08:28.964Z,74.95
2018-09-09T06:09:28.965Z,75.62
2018-09-09T06:11:21.870Z,75.14
2018-09-09T06:12:21.892Z,74.95
2018-09-09T06:14:14.845Z,75.43
2018-09-09T06:15:14.867Z,74.60
2018-09-09T06:17:07.758Z,74.31
2018-09-09T06:18:07.776Z,74.22
2018-09-09T06:20:00.700Z,74.02
2018-09-09T06:21:00.710Z,74.12
2018-09-09T06:22:53.645Z,73.55
2018-09-09T06:23:53.642Z,74.22
2018-09-09T06:25:46.564Z,74.12
2018-09-09T06:26:46.591Z,74.02
2018-09-09T06:28:39.508Z,73.74
2018-09-09T06:29:39.523Z,73.65
2018-09-09T06:31:32.429Z,72.91
2018-09-09T06:32:32.456Z,72.81
2018-09-09T06:37:28.786Z,72.14
2018-09-09T06:38:28.788Z,72.33
2018-09-09T06:40:21.723Z,72.33
2018-09-09T06:41:21.729Z,72.05
2018-09-09T06:43:14.653Z,72.43
2018-09-09T06:44:14.660Z,72.43
2018-09-09T06:46:07.594Z,71.70
2018-09-09T06:47:07.593Z,71.41
2018-09-09T06:49:00.514Z,71.31
2018-09-09T06:50:00.525Z,71.22
2018-09-09T06:51:53.433Z,70.97
2018-09-09T06:52:53.464Z,70.87
2018-09-09T06:54:46.375Z,70.97
2018-09-09T06:55:46.389Z,70.10
2018-09-09T06:57:39.306Z,70.10
2018-09-09T06:58:39.325Z,69.34
2018-09-09T07:00:32.250Z,69.14
2018-09-09T07:01:32.262Z,68.70
2018-09-09T07:03:25.182Z,68.70
2018-09-09T07:04:25.218Z,68.51
2018-09-09T07:06:18.123Z,67.93
2018-09-09T07:07:18.132Z,67.48
2018-09-09T07:09:11.069Z,66.71
2018-09-09T07:10:11.076Z,67.48
2018-09-09T07:12:04.237Z,65.84
2018-09-09T07:13:04.213Z,66.61
2018-09-09T07:14:57.148Z,66.33
2018-09-09T07:15:57.146Z,65.30
2018-09-09T07:17:50.062Z,65.01
2018-09-09T07:18:50.081Z,64.82
2018-09-09T07:20:42.999Z,64.34
2018-09-09T07:21:43.017Z,64.34
2018-09-09T07:23:35.934Z,64.37
2018-09-09T07:24:35.954Z,64.37
2018-09-09T07:26:28.876Z,64.08
2018-09-09T07:27:28.892Z,64.08
2018-09-09T07:29:21.801Z,63.99
2018-09-09T07:30:21.831Z,64.08
2018-09-09T07:32:14.752Z,63.34
2018-09-09T07:33:14.767Z,63.15
2018-09-09T07:35:07.692Z,62.09
2018-09-09T07:36:07.705Z,62.19
2018-09-09T07:38:00.618Z,62.09
2018-09-09T07:39:00.642Z,62.03
2018-09-09T07:40:53.564Z,61.16
2018-09-09T07:41:53.580Z,61.25
2018-09-09T07:43:46.510Z,60.71
2018-09-09T07:44:46.520Z,60.32
2018-09-09T07:46:39.459Z,59.87
2018-09-09T07:47:39.457Z,58.91
2018-09-09T07:49:32.394Z,57.01
2018-09-09T07:50:32.450Z,57.59
2018-09-09T07:52:25.331Z,55.94
2018-09-09T07:53:25.352Z,56.24
2018-09-09T07:55:18.271Z,55.27
2018-09-09T07:56:18.297Z,56.04
2018-09-09T07:58:11.221Z,56.14
2018-09-09T07:59:11.244Z,54.11
2018-09-09T08:01:04.161Z,54.31
2018-09-09T08:02:04.191Z,55.08
2018-09-09T08:03:57.093Z,55.01
2018-09-09T08:04:57.117Z,53.37
2018-09-09T08:06:50.057Z,52.89
2018-09-09T08:07:50.073Z,53.08
2018-09-09T08:09:42.997Z,53.27
2018-09-09T08:10:43.019Z,52.69
2018-09-09T08:12:35.947Z,53.39
2018-09-09T08:13:35.962Z,51.95
2018-09-09T08:15:28.882Z,52.40
2018-09-09T08:16:28.921Z,52.50
2018-09-09T08:18:21.841Z,52.21
2018-09-09T08:19:21.853Z,52.31
2018-09-09T08:21:14.774Z,53.08
2018-09-09T08:22:14.795Z,52.79
2018-09-09T08:24:07.731Z,51.82
2018-09-09T08:25:07.746Z,52.11
2018-09-09T08:27:00.681Z,51.92
2018-09-09T08:28:00.699Z,52.01
2018-09-09T08:29:53.620Z,52.11
2018-09-09T08:30:53.648Z,52.11
2018-09-09T08:32:46.573Z,52.21
2018-09-09T08:33:46.595Z,51.82
2018-09-09T08:35:39.507Z,51.99
2018-09-09T08:36:39.534Z,52.37
2018-09-09T08:38:32.457Z,52.09
2018-09-09T08:39:32.474Z,52.28
2018-09-09T08:41:25.412Z,52.01
2018-09-09T08:42:25.425Z,52.69
2018-09-09T08:44:18.350Z,52.28
2018-09-09T08:45:18.382Z,52.40
2018-09-09T08:47:11.307Z,52.50
2018-09-09T08:48:11.327Z,52.40
2018-09-09T08:50:04.234Z,51.27
2018-09-09T08:51:04.256Z,51.27
2018-09-09T08:52:57.186Z,51.85
2018-09-09T08:53:57.194Z,51.75
2018-09-09T08:55:50.120Z,51.01
2018-09-09T08:56:50.157Z,50.23
2018-09-09T08:58:43.079Z,49.58
2018-09-09T08:59:43.097Z,49.00
2018-09-09T09:01:36.013Z,48.71
2018-09-09T09:02:36.042Z,47.84
2018-09-09T09:04:28.971Z,49.00
2018-09-09T09:05:28.989Z,48.81
2018-09-09T09:07:21.956Z,49.29
2018-09-09T09:08:21.930Z,48.90
2018-09-09T09:10:14.860Z,48.74
2018-09-09T09:11:14.876Z,48.54
2018-09-09T09:13:07.796Z,47.58
2018-09-09T09:14:07.836Z,46.70
2018-09-09T09:16:00.756Z,47.16
2018-09-09T09:17:00.779Z,47.65
2018-09-09T09:18:53.704Z,47.94
2018-09-09T09:19:53.724Z,47.45
2018-09-09T09:21:46.694Z,47.55
2018-09-09T09:22:46.675Z,47.36
2018-09-09T09:24:39.603Z,47.58
2018-09-09T09:25:39.619Z,47.38
2018-09-09T09:27:32.542Z,47.19
2018-09-09T09:28:32.563Z,46.80
2018-09-09T09:30:25.496Z,46.03
2018-09-09T09:31:25.517Z,45.83
2018-09-09T09:33:18.448Z,45.64
2018-09-09T09:34:18.459Z,46.22
2018-09-09T09:36:11.398Z,46.32
2018-09-09T09:37:11.425Z,46.03
2018-09-09T09:39:04.373Z,46.90
2018-09-09T09:40:04.380Z,46.22
2018-09-09T09:41:57.314Z,46.70
2018-09-09T09:42:57.313Z,46.25
2018-09-09T09:44:50.266Z,45.86
2018-09-09T09:45:50.259Z,45.66
2018-09-09T09:47:43.171Z,45.57
2018-09-09T09:48:43.196Z,45.57
2018-09-09T09:50:36.123Z,44.79
2018-09-09T09:51:36.143Z,45.08
2018-09-09T09:53:29.109Z,45.06
2018-09-09T09:54:29.085Z,45.16
2018-09-09T09:56:22.020Z,44.96
2018-09-09T09:57:22.041Z,44.87
2018-09-09T09:59:14.965Z,45.54
2018-09-09T10:00:14.990Z,44.77
2018-09-09T10:02:07.916Z,45.45
2018-09-09T10:03:07.936Z,45.74
2018-09-09T10:05:00.880Z,45.76
2018-09-09T10:06:00.901Z,46.25
2018-09-09T10:07:54.824Z,45.66
2018-09-09T10:08:54.858Z,46.25
2018-09-09T10:10:47.779Z,45.57
2018-09-09T10:11:47.798Z,45.28
2018-09-09T10:13:40.714Z,45.18
2018-09-09T10:14:40.740Z,45.57
2018-09-09T10:16:33.672Z,45.08
2018-09-09T10:17:33.693Z,44.89
2018-09-09T10:19:26.609Z,44.50
2018-09-09T10:20:26.633Z,44.60
2018-09-09T10:22:19.572Z,44.33
2018-09-09T10:23:19.588Z,44.53
2018-09-09T10:25:12.515Z,44.81
2018-09-09T10:26:12.541Z,44.33
2018-09-09T10:28:05.474Z,44.35
2018-09-09T10:29:05.491Z,44.45
2018-09-09T10:30:58.422Z,44.06
2018-09-09T10:31:58.515Z,44.18
2018-09-09T10:33:51.357Z,42.92
2018-09-09T10:34:51.731Z,42.72
2018-09-09T10:36:44.349Z,43.12
2018-09-09T10:37:44.332Z,42.92
2018-09-09T10:39:37.256Z,42.72
2018-09-09T10:40:37.279Z,42.26
2018-09-09T10:42:30.210Z,42.14
2018-09-09T10:43:30.224Z,42.24
2018-09-09T10:45:23.149Z,42.05
2018-09-09T10:46:23.367Z,42.24
2018-09-09T10:48:16.108Z,42.34
2018-09-09T10:49:16.129Z,42.44
2018-09-09T10:51:09.052Z,42.34
2018-09-09T10:52:09.077Z,42.72
2018-09-09T10:54:01.994Z,42.72
2018-09-09T10:55:02.016Z,42.82
2018-09-09T10:56:54.962Z,42.63
2018-09-09T10:57:54.969Z,42.05
2018-09-09T10:59:47.897Z,41.95
2018-09-09T11:00:47.922Z,41.95
2018-09-09T11:02:40.854Z,41.66
2018-09-09T11:03:40.869Z,42.05
2018-09-09T11:05:33.812Z,41.83
2018-09-09T11:06:33.814Z,42.14
2018-09-09T11:08:26.745Z,41.95
2018-09-09T11:09:26.769Z,42.72
2018-09-09T11:11:19.687Z,42.14
2018-09-09T11:12:19.711Z,42.34
2018-09-09T11:14:12.652Z,42.14
2018-09-09T11:15:12.670Z,42.24
2018-09-09T11:17:05.603Z,41.78
2018-09-09T11:18:05.622Z,41.58
2018-09-09T11:19:58.540Z,41.78
2018-09-09T11:20:58.569Z,42.07
2018-09-09T11:22:51.503Z,41.58
2018-09-09T11:23:51.526Z,41.88
2018-09-09T11:25:44.444Z,41.58
2018-09-09T11:26:44.473Z,41.88
2018-09-09T11:28:37.406Z,41.51
2018-09-09T11:29:37.427Z,41.41
2018-09-09T11:31:30.356Z,41.41
2018-09-09T11:32:30.379Z,41.61
2018-09-09T11:34:23.314Z,40.73
2018-09-09T11:35:23.333Z,40.15
2018-09-09T11:37:16.259Z,40.34
2018-09-09T11:38:16.284Z,40.73
2018-09-09T11:40:09.221Z,41.41
2018-09-09T11:41:09.234Z,40.54
2018-09-09T11:43:02.167Z,40.34
2018-09-09T11:44:02.184Z,39.76
2018-09-09T11:45:55.119Z,40.64
2018-09-09T11:46:55.138Z,40.44
2018-09-09T11:48:48.071Z,40.64
2018-09-09T11:49:48.090Z,40.73
2018-09-09T11:51:41.013Z,40.64
2018-09-09T11:52:41.045Z,40.25
2018-09-09T11:54:33.981Z,40.34
2018-09-09T11:55:34.002Z,40.44
2018-09-09T11:57:26.960Z,40.33
2018-09-09T11:58:26.953Z,40.33
2018-09-09T12:00:19.895Z,40.83
2018-09-09T12:01:19.913Z,41.22
2018-09-09T12:03:12.837Z,41.14
2018-09-09T12:04:12.872Z,40.36
2018-09-09T12:06:06.040Z,40.29
2018-09-09T12:07:06.067Z,39.80
2018-09-09T12:08:58.993Z,39.22
2018-09-09T12:09:59.017Z,38.65
2018-09-09T12:11:52.013Z,38.37
2018-09-09T12:12:51.964Z,38.46
2018-09-09T12:14:45.611Z,38.56
2018-09-09T12:15:45.518Z,38.65
2018-09-09T12:17:38.906Z,38.07
2018-09-09T12:18:38.930Z,38.27
2018-09-09T12:20:31.863Z,38.27
2018-09-09T12:21:31.884Z,38.46
2018-09-09T12:23:24.831Z,38.56
2018-09-09T12:24:24.840Z,38.56
2018-09-09T12:26:17.775Z,38.06
2018-09-09T12:27:17.797Z,38.34
2018-09-09T12:29:10.738Z,38.93
2018-09-09T12:30:10.759Z,38.54
2018-09-09T12:32:03.687Z,38.83
2018-09-09T12:33:03.716Z,37.96
2018-09-09T12:34:56.642Z,39.03
2018-09-09T12:35:56.667Z,39.03
2018-09-09T12:37:49.627Z,39.51
2018-09-09T12:38:49.611Z,38.93
2018-09-09T12:40:42.541Z,38.06
2018-09-09T12:41:42.563Z,38.34
2018-09-09T12:43:35.482Z,37.86
2018-09-09T12:44:35.548Z,37.66
2018-09-09T12:46:28.442Z,37.37
2018-09-09T12:47:28.669Z,38.54
2018-09-09T12:49:22.396Z,37.66
2018-09-09T12:50:22.410Z,38.06
2018-09-09T12:52:15.354Z,38.25
2018-09-09T12:53:15.388Z,37.65
2018-09-09T12:55:08.305Z,38.32
2018-09-09T12:56:08.330Z,38.70
2018-09-09T12:58:01.253Z,39.20
2018-09-09T12:59:01.281Z,39.29
2018-09-09T13:00:54.213Z,39.37
2018-09-09T13:01:54.230Z,39.28
2018-09-09T13:03:47.173Z,39.37
2018-09-09T13:04:47.229Z,39.39
2018-09-09T13:06:40.131Z,39.37
2018-09-09T13:07:40.155Z,39.47
2018-09-09T13:09:33.071Z,40.34
2018-09-09T13:10:33.103Z,40.75
2018-09-09T13:12:26.031Z,38.99
2018-09-09T13:13:26.053Z,39.18
2018-09-09T13:15:18.989Z,39.67
2018-09-09T13:16:19.009Z,39.37
2018-09-09T13:18:12.132Z,38.99
2018-09-09T13:19:12.164Z,38.70
2018-09-09T13:21:05.088Z,38.70
2018-09-09T13:22:05.110Z,38.99
2018-09-09T13:23:58.029Z,39.39
2018-09-09T13:24:58.060Z,39.49
2018-09-09T13:26:50.986Z,39.03
2018-09-09T13:27:51.012Z,38.34
2018-09-09T13:29:43.926Z,38.44
2018-09-09T13:30:43.968Z,37.86
2018-09-09T13:32:36.884Z,38.54
2018-09-09T13:33:36.903Z,39.03
2018-09-09T13:35:29.859Z,38.23
2018-09-09T13:36:29.857Z,39.01
2018-09-09T13:38:22.804Z,38.81
2018-09-09T13:39:22.810Z,38.89
2018-09-09T13:41:15.746Z,39.67
2018-09-09T13:42:15.761Z,40.42
2018-09-09T13:44:08.781Z,39.94
2018-09-09T13:45:08.706Z,39.65
2018-09-09T13:47:01.632Z,39.55
2018-09-09T13:48:01.681Z,38.48
2018-09-09T13:49:54.574Z,39.76
2018-09-09T13:50:54.590Z,39.95
2018-09-09T13:52:47.525Z,39.28
2018-09-09T13:53:47.561Z,39.47
2018-09-09T13:55:40.468Z,39.67
2018-09-09T13:56:40.499Z,39.57
2018-09-09T13:58:33.437Z,39.45
2018-09-09T13:59:33.455Z,40.05
2018-09-09T14:01:26.405Z,39.95
2018-09-09T14:02:26.408Z,39.47
2018-09-09T14:04:19.325Z,39.94
2018-09-09T14:05:19.352Z,40.13
2018-09-09T14:07:12.285Z,40.33
2018-09-09T14:08:12.305Z,40.23
2018-09-09T14:10:05.224Z,40.61
2018-09-09T14:11:05.309Z,39.65
2018-09-09T14:12:58.195Z,39.65
2018-09-09T14:13:58.215Z,39.94
2018-09-09T14:15:51.140Z,40.13
2018-09-09T14:16:51.182Z,40.61
2018-09-09T14:18:44.092Z,40.42
2018-09-09T14:19:44.118Z,39.65
2018-09-09T14:21:37.039Z,39.94
2018-09-09T14:22:37.114Z,39.18
2018-09-09T14:24:30.012Z,38.40
2018-09-09T14:25:30.028Z,39.36
2018-09-09T14:27:22.953Z,39.28
2018-09-09T14:28:22.977Z,39.08
2018-09-09T14:30:16.096Z,38.99
2018-09-09T14:31:15.931Z,38.32
2018-09-09T14:33:09.145Z,37.94
2018-09-09T14:34:09.224Z,38.23
2018-09-09T14:36:02.165Z,38.04
2018-09-09T14:37:02.128Z,38.02
2018-09-09T14:38:55.059Z,38.21
2018-09-09T14:39:55.536Z,38.58
2018-09-09T14:41:48.023Z,39.06
2018-09-09T14:42:48.047Z,39.16
2018-09-09T14:44:40.981Z,39.65
2018-09-09T14:45:41.002Z,39.74
2018-09-09T14:47:33.920Z,39.84
2018-09-09T14:48:33.947Z,39.06
2018-09-09T14:50:26.911Z,39.57
2018-09-09T14:51:26.890Z,39.28
2018-09-09T14:53:19.886Z,38.99
2018-09-09T14:54:19.844Z,38.99
2018-09-09T14:56:12.819Z,38.32
2018-09-09T14:57:12.861Z,37.84
2018-09-09T14:59:05.775Z,38.52
2018-09-09T15:00:05.814Z,38.32
2018-09-09T15:01:58.725Z,37.84
2018-09-09T15:02:58.753Z,37.65
2018-09-09T15:04:51.682Z,37.84
2018-09-09T15:05:51.701Z,37.65
2018-09-09T15:07:44.623Z,37.84
2018-09-09T15:08:44.668Z,37.84
2018-09-09T15:10:37.573Z,38.23
2018-09-09T15:11:37.615Z,37.26
2018-09-09T15:13:30.518Z,37.76
2018-09-09T15:14:30.544Z,37.66
2018-09-09T15:16:23.473Z,37.57
2018-09-09T15:17:23.501Z,37.86
2018-09-09T15:19:16.428Z,37.47
2018-09-09T15:20:16.444Z,37.37
2018-09-09T15:22:09.391Z,37.47
2018-09-09T15:23:09.398Z,37.37
2018-09-09T15:25:02.340Z,37.57
2018-09-09T15:26:02.350Z,37.76
2018-09-09T15:27:55.274Z,37.76
2018-09-09T15:28:55.309Z,36.99
2018-09-09T15:30:48.233Z,36.89
2018-09-09T15:31:48.276Z,37.66
2018-09-09T15:33:41.170Z,37.18
2018-09-09T15:34:41.200Z,37.28
2018-09-09T15:36:34.127Z,36.69
2018-09-09T15:37:34.149Z,36.60
2018-09-09T15:39:27.072Z,36.81
2018-09-09T15:40:27.106Z,36.71
2018-09-09T15:42:20.052Z,36.52
2018-09-09T15:43:20.069Z,36.61
2018-09-09T15:45:13.005Z,36.44
2018-09-09T15:46:13.043Z,36.22
2018-09-09T15:48:05.942Z,36.52
2018-09-09T15:49:05.972Z,36.52
2018-09-09T15:50:58.906Z,36.32
2018-09-09T15:51:59.062Z,36.52
2018-09-09T15:53:51.854Z,36.71
2018-09-09T15:54:51.881Z,37.20
2018-09-09T15:56:44.807Z,37.28
2018-09-09T15:57:44.872Z,37.57
2018-09-09T15:59:38.838Z,37.96
2018-09-09T16:00:38.776Z,38.25
2018-09-09T16:02:31.731Z,38.44
2018-09-09T16:03:31.736Z,38.73
2018-09-09T16:05:24.661Z,37.66
2018-09-09T16:06:24.689Z,37.66
2018-09-09T16:08:17.634Z,37.28
2018-09-09T16:09:17.658Z,37.66
2018-09-09T16:11:10.590Z,37.57
2018-09-09T16:12:10.610Z,38.06
2018-09-09T16:14:03.544Z,38.54
2018-09-09T16:15:03.566Z,38.54
2018-09-09T16:16:56.502Z,38.91
2018-09-09T16:17:56.521Z,39.49
2018-09-09T16:19:49.446Z,39.20
2018-09-09T16:20:49.474Z,39.39
2018-09-09T16:22:42.408Z,39.78
2018-09-09T16:23:42.426Z,40.26
2018-09-09T16:25:35.346Z,39.69
2018-09-09T16:26:35.379Z,39.69
2018-09-09T16:28:28.300Z,39.90
2018-09-09T16:29:28.319Z,39.80
2018-09-09T16:31:21.438Z,39.90
2018-09-09T16:32:21.444Z,39.51
2018-09-09T16:34:14.370Z,39.41
2018-09-09T16:35:14.404Z,38.93
2018-09-09T16:37:07.331Z,39.41
2018-09-09T16:38:07.361Z,38.83
2018-09-09T16:40:00.282Z,39.12
2018-09-09T16:41:00.302Z,38.73
2018-09-09T16:42:53.226Z,39.01
2018-09-09T16:43:53.252Z,39.39
2018-09-09T16:45:46.171Z,39.39
2018-09-09T16:46:46.286Z,39.39
2018-09-09T16:48:39.125Z,39.67
2018-09-09T16:49:39.143Z,39.67
2018-09-09T16:51:32.063Z,40.44
2018-09-09T16:52:32.096Z,40.23
2018-09-09T16:54:25.023Z,40.42
2018-09-09T16:55:25.042Z,40.33
2018-09-09T16:57:17.974Z,41.00
2018-09-09T16:58:17.985Z,41.76
2018-09-09T17:00:10.912Z,41.95
2018-09-09T17:01:10.983Z,41.76
2018-09-09T17:03:03.884Z,41.95
2018-09-09T17:04:03.878Z,42.13
2018-09-09T17:05:56.800Z,42.13
2018-09-09T17:06:56.824Z,42.32
2018-09-09T17:08:49.752Z,42.90
2018-09-09T17:09:49.769Z,42.80
2018-09-09T17:11:42.694Z,43.17
2018-09-09T17:12:42.740Z,42.97
2018-09-09T17:14:35.739Z,42.78
2018-09-09T17:15:35.694Z,43.17
2018-09-09T17:17:28.583Z,43.27
2018-09-09T17:18:28.625Z,43.05
2018-09-09T17:20:21.637Z,42.96
2018-09-09T17:21:21.555Z,43.63
2018-09-09T17:23:14.538Z,43.73
2018-09-09T17:24:14.498Z,43.92
2018-09-09T17:26:07.443Z,44.12
2018-09-09T17:27:07.475Z,44.29
2018-09-09T17:29:00.423Z,44.89
2018-09-09T17:30:00.443Z,44.87
2018-09-09T17:31:53.548Z,44.87
2018-09-09T17:32:53.543Z,44.57
2018-09-09T17:34:46.468Z,44.96
2018-09-09T17:35:46.519Z,44.67
2018-09-09T17:37:39.411Z,44.57
2018-09-09T17:38:39.468Z,44.77
2018-09-09T17:40:32.409Z,45.14
2018-09-09T17:41:32.409Z,44.94
2018-09-09T17:43:25.323Z,45.81
2018-09-09T17:44:25.326Z,45.33
2018-09-09T17:46:18.250Z,45.42
2018-09-09T17:47:18.278Z,45.33
2018-09-09T17:49:11.200Z,45.62
2018-09-09T17:50:11.215Z,45.79
2018-09-09T17:52:04.135Z,45.79
2018-09-09T17:53:04.160Z,46.17
2018-09-09T17:54:57.094Z,46.08
2018-09-09T17:55:57.109Z,46.95
2018-09-09T17:57:50.022Z,46.95
2018-09-09T17:58:50.046Z,46.85
2018-09-09T18:00:42.987Z,46.66
2018-09-09T18:01:43.004Z,46.85
2018-09-09T18:03:35.976Z,46.83
2018-09-09T18:04:35.945Z,46.83
2018-09-09T18:06:28.869Z,47.50
2018-09-09T18:07:28.885Z,47.31
2018-09-09T18:09:21.817Z,47.31
2018-09-09T18:10:21.826Z,47.70
2018-09-09T18:12:14.741Z,47.99
2018-09-09T18:13:14.769Z,47.80
2018-09-09T18:15:07.698Z,48.28
2018-09-09T18:16:07.719Z,48.76
2018-09-09T18:18:00.856Z,48.54
2018-09-09T18:19:00.867Z,48.93
2018-09-09T18:20:53.850Z,48.93
2018-09-09T18:21:53.807Z,49.24
2018-09-09T18:23:46.722Z,49.32
2018-09-09T18:24:46.747Z,49.32
2018-09-09T18:26:39.669Z,49.80
2018-09-09T18:27:39.694Z,49.80
2018-09-09T18:29:32.675Z,50.28
2018-09-09T18:30:32.625Z,50.67
2018-09-09T18:32:25.547Z,51.25
2018-09-09T18:33:25.563Z,51.15
2018-09-09T18:35:18.487Z,51.82
2018-09-09T18:36:18.543Z,51.61